Accueil
METAR-TAF:

METAR-TAF

Aéroports :

Wunstorf, Allemagne

latitude: 52-27N, longitude: 009-26E, altitude: 57 m

Observation

Le bulletin a été fait il y a 45 minutes, à 07:20 UTC
Vent 4 kt de sud
Température 14°C
Humidité 72%
Pression 1013 hPa
Visibilité 10 km ou plus
Quelques nuages à une hauteur de 12000 ft

METAR: ETNW 150720Z 18004KT 9999 FEW120 14/09 Q1013 BLU+BLU+

Heure: 10:05 (08:05 UTC)

Prévision

Le bulletin a été fait il y a 3 heures et 50 minutes, à 04:15 UTC
Prévision valable du 15 à 05 UTC au 16 à 05 UTC
Vent 7 kt de sud/sud-est
Visibilité 10 km ou plus
Quelques nuages à une hauteur de 20000 ft
Probabilité 30%
du 15 à 22 UTC au 16 à 05 UTC
Vent 3 kt de ouest/sud-ouest
Visibilité: 4000 m
Quelques nuages à une hauteur de 10000 ft
brume

TAF: ETNW 150415Z 1505/1605 16007KT 9999 NSW FEW200 PROB30 1522/1605 25003KT 4000 BR FEW100 BY ETGL

Observations et prévisions météorologiques de plus de 4000 aéroports (messages METAR et TAF).

Les stations disponibles sont représentées par des disques jaunes et rouges sur la carte.

Passer la souris dessus pour voir le nom de la station.

Cliquer dessus pour voir les observations et prévisions météorologiques.

Pour changer de carte: cliquez sur les boutons verts avec une croix noire pour zoomer, sur le bouton vert avec un tiret pour effectuer un zoom arrière, ou sur les flèches vertes pour les cartes adjacentes.


METAR-TAF: